Time;durP1;ratioP1;P1;durP2;ratioP2;P2;SDS_P1;SDS_P2;PMS_P1;PMS_P2;Temp;Humidity;BMP_temperature;BMP_pressure;BME280_temperature;BME280_humidity;BME280_pressure;Samples;Min_cycle;Max_cycle;Signal;HPM_P1;HPM_P2
2022/09/16 00:00:28;;;;;;;0.00;0.00;;;;;;;;;;5056770;28;20045;-73
2022/09/16 00:02:55;;;;;;;0.10;0.10;;;;;;;;;;5060456;28;20055;-73
2022/09/16 00:05:21;;;;;;;0.10;0.10;;;;;;;;;;5052505;28;20041;-72
2022/09/16 00:07:47;;;;;;;0.10;0.10;;;;;;;;;;5060586;28;20056;-72
2022/09/16 00:10:13;;;;;;;0.10;0.10;;;;;;;;;;5060799;28;20036;-72
2022/09/16 00:12:40;;;;;;;0.10;0.10;;;;;;;;;;5051054;28;20132;-72
2022/09/16 00:15:06;;;;;;;0.00;0.00;;;;;;;;;;5057123;28;20123;-72
2022/09/16 00:17:33;;;;;;;0.10;0.10;;;;;;;;;;5040379;28;20056;-72
2022/09/16 00:20:00;;;;;;;0.10;0.10;;;;;;;;;;5061960;28;20041;-72
2022/09/16 00:22:28;;;;;;;0.10;0.10;;;;;;;;;;5061478;28;20048;-72
2022/09/16 00:24:54;;;;;;;0.10;0.10;;;;;;;;;;5063680;28;20686;-72
2022/09/16 00:27:20;;;;;;;0.00;0.00;;;;;;;;;;5058109;28;20123;-74
2022/09/16 00:29:46;;;;;;;0.10;0.10;;;;;;;;;;5053719;28;20052;-74
2022/09/16 00:32:12;;;;;;;0.10;0.10;;;;;;;;;;5062346;28;20066;-72
2022/09/16 00:34:38;;;;;;;0.10;0.10;;;;;;;;;;5059969;28;20049;-73
2022/09/16 00:37:07;;;;;;;0.10;0.10;;;;;;;;;;5062474;28;20052;-72
2022/09/16 00:39:33;;;;;;;0.10;0.10;;;;;;;;;;5050236;28;20438;-72
2022/09/16 00:42:00;;;;;;;1.55;1.45;;;;;;;;;;5059454;28;20041;-72
2022/09/16 00:44:45;;;;;;;0.10;0.10;;;;;;;;;;5058864;28;20515;-73
2022/09/16 00:47:12;;;;;;;0.10;0.10;;;;;;;;;;5056150;28;20047;-73
2022/09/16 00:49:38;;;;;;;0.10;0.10;;;;;;;;;;5056390;28;20036;-72
2022/09/16 00:52:05;;;;;;;0.10;0.10;;;;;;;;;;5053393;28;20049;-72
2022/09/16 00:54:32;;;;;;;0.10;0.10;;;;;;;;;;5057697;28;20144;-72
2022/09/16 00:57:00;;;;;;;1.05;0.90;;;;;;;;;;5058204;28;20056;-73
2022/09/16 00:59:27;;;;;;;0.10;0.10;;;;;;;;;;5050452;28;20889;-72
2022/09/16 01:01:55;;;;;;;0.10;0.10;;;;;;;;;;5061528;28;21149;-72
2022/09/16 01:04:23;;;;;;;0.10;0.10;;;;;;;;;;5058042;28;20048;-72
2022/09/16 01:06:49;;;;;;;0.08;0.08;;;;;;;;;;5058195;28;20041;-72
2022/09/16 01:09:18;;;;;;;0.10;0.10;;;;;;;;;;5056129;28;20048;-72
2022/09/16 01:11:44;;;;;;;0.10;0.10;;;;;;;;;;5049483;28;20156;-72
2022/09/16 01:17:00;;;;;;;0.10;0.10;;;;;;;;;;5055607;28;20475;-73
2022/09/16 01:19:45;;;;;;;0.10;0.10;;;;;;;;;;5040668;28;20055;-72
2022/09/16 01:22:11;;;;;;;0.10;0.10;;;;;;;;;;5053014;28;20041;-72
2022/09/16 01:24:38;;;;;;;0.10;0.10;;;;;;;;;;5061801;28;20119;-72
2022/09/16 01:27:10;;;;;;;0.10;0.10;;;;;;;;;;5057340;28;20037;-72
2022/09/16 01:29:36;;;;;;;0.10;0.10;;;;;;;;;;5060497;28;20079;-72
2022/09/16 01:32:17;;;;;;;0.10;0.10;;;;;;;;;;5056041;28;20052;-72
2022/09/16 01:35:03;;;;;;;0.10;0.10;;;;;;;;;;5054981;28;20329;-72
2022/09/16 01:37:32;;;;;;;0.10;0.10;;;;;;;;;;5055752;28;20057;-73
2022/09/16 01:39:58;;;;;;;0.10;0.10;;;;;;;;;;5040762;28;20399;-72
2022/09/16 01:42:30;;;;;;;0.10;0.10;;;;;;;;;;5054215;28;20040;-72
2022/09/16 01:45:03;;;;;;;0.10;0.10;;;;;;;;;;5062046;28;20044;-73
2022/09/16 01:47:32;;;;;;;0.10;0.10;;;;;;;;;;5057457;28;20045;-72
2022/09/16 01:50:02;;;;;;;0.10;0.10;;;;;;;;;;5053952;28;20479;-72
2022/09/16 01:52:31;;;;;;;0.10;0.10;;;;;;;;;;5042616;28;20041;-72
2022/09/16 01:55:06;;;;;;;0.10;0.10;;;;;;;;;;5050713;28;20040;-72
2022/09/16 01:57:50;;;;;;;0.10;0.10;;;;;;;;;;5055562;28;20040;-72
2022/09/16 02:00:17;;;;;;;0.10;0.10;;;;;;;;;;5055300;28;20507;-72
2022/09/16 02:02:52;;;;;;;0.10;0.10;;;;;;;;;;5056633;28;20052;-72
2022/09/16 02:05:27;;;;;;;0.10;0.10;;;;;;;;;;5052775;28;20115;-72
2022/09/16 02:07:59;;;;;;;0.10;0.10;;;;;;;;;;5059829;28;20053;-72
2022/09/16 02:10:30;;;;;;;0.00;0.00;;;;;;;;;;5027143;28;20106;-72
2022/09/16 02:12:59;;;;;;;0.10;0.10;;;;;;;;;;5053963;28;20090;-72
2022/09/16 02:15:27;;;;;;;0.10;0.10;;;;;;;;;;5052486;28;20103;-72
2022/09/16 02:17:57;;;;;;;0.10;0.10;;;;;;;;;;5055936;28;20075;-72
2022/09/16 02:20:26;;;;;;;0.10;0.10;;;;;;;;;;5057960;28;20048;-72
2022/09/16 02:22:55;;;;;;;0.00;0.00;;;;;;;;;;5052923;28;20052;-72
2022/09/16 02:25:23;;;;;;;0.10;0.10;;;;;;;;;;5060608;28;20045;-72
2022/09/16 02:27:50;;;;;;;1.50;1.40;;;;;;;;;;5054796;28;20045;-73
2022/09/16 02:30:18;;;;;;;0.10;0.10;;;;;;;;;;5058828;28;20041;-72
2022/09/16 02:32:50;;;;;;;0.10;0.10;;;;;;;;;;5056774;28;20050;-71
2022/09/16 02:35:17;;;;;;;0.10;0.10;;;;;;;;;;5050799;28;20499;-72
2022/09/16 02:37:51;;;;;;;0.10;0.10;;;;;;;;;;5059188;28;20079;-72
2022/09/16 02:40:33;;;;;;;0.10;0.10;;;;;;;;;;5052015;28;20037;-72
2022/09/16 02:43:00;;;;;;;0.10;0.10;;;;;;;;;;5054694;28;20117;-72
2022/09/16 02:45:33;;;;;;;0.10;0.10;;;;;;;;;;5052146;28;20045;-72
2022/09/16 02:48:15;;;;;;;0.10;0.10;;;;;;;;;;5060485;28;20045;-72
2022/09/16 02:50:43;;;;;;;0.10;0.10;;;;;;;;;;5052996;28;20141;-72
2022/09/16 02:53:37;;;;;;;0.10;0.10;;;;;;;;;;5056300;28;20454;-72
2022/09/16 02:56:07;;;;;;;0.10;0.10;;;;;;;;;;5060790;28;20099;-72
2022/09/16 02:58:33;;;;;;;0.10;0.10;;;;;;;;;;5055876;28;20068;-72
2022/09/16 03:01:00;;;;;;;0.10;0.10;;;;;;;;;;5050951;28;20046;-72
2022/09/16 03:03:26;;;;;;;0.00;0.00;;;;;;;;;;5050371;28;20048;-71
2022/09/16 03:06:11;;;;;;;0.00;0.00;;;;;;;;;;5042989;28;20863;-72
2022/09/16 03:08:37;;;;;;;0.10;0.10;;;;;;;;;;5034185;28;20052;-72
2022/09/16 03:11:16;;;;;;;0.10;0.10;;;;;;;;;;5043834;28;20209;-71
2022/09/16 03:14:14;;;;;;;0.10;0.10;;;;;;;;;;5044606;28;20126;-71
2022/09/16 03:16:45;;;;;;;0.10;0.10;;;;;;;;;;5011585;28;20064;-71
2022/09/16 03:19:22;;;;;;;0.10;0.10;;;;;;;;;;5050126;28;20367;-72
2022/09/16 03:21:59;;;;;;;0.10;0.10;;;;;;;;;;5047825;28;20061;-72
2022/09/16 03:24:46;;;;;;;0.10;0.10;;;;;;;;;;5054079;28;20097;-71
2022/09/16 03:27:38;;;;;;;0.10;0.10;;;;;;;;;;5052722;28;20068;-72
2022/09/16 03:30:08;;;;;;;0.10;0.10;;;;;;;;;;5049082;28;20056;-73
2022/09/16 03:32:41;;;;;;;0.10;0.10;;;;;;;;;;5059005;28;20048;-71
2022/09/16 03:35:11;;;;;;;0.10;0.10;;;;;;;;;;5055678;28;20139;-71
2022/09/16 03:37:38;;;;;;;0.10;0.10;;;;;;;;;;5061108;28;20053;-73
2022/09/16 03:40:07;;;;;;;0.10;0.10;;;;;;;;;;5049667;28;20563;-71
2022/09/16 03:42:34;;;;;;;0.10;0.10;;;;;;;;;;5055559;28;20444;-71
2022/09/16 03:45:00;;;;;;;0.10;0.10;;;;;;;;;;5055259;28;20483;-71
2022/09/16 03:47:26;;;;;;;0.10;0.10;;;;;;;;;;5058360;28;20052;-72
2022/09/16 03:49:52;;;;;;;0.10;0.10;;;;;;;;;;5057124;28;20040;-72
2022/09/16 03:52:18;;;;;;;0.10;0.10;;;;;;;;;;5037257;28;20053;-71
2022/09/16 03:54:45;;;;;;;0.10;0.10;;;;;;;;;;5057359;28;20097;-71
2022/09/16 03:57:11;;;;;;;0.10;0.10;;;;;;;;;;5059711;28;20044;-71
2022/09/16 03:59:37;;;;;;;0.00;0.00;;;;;;;;;;5036670;28;20053;-73
2022/09/16 04:02:03;;;;;;;0.10;0.10;;;;;;;;;;5051866;28;20110;-71
2022/09/16 04:04:29;;;;;;;0.20;0.20;;;;;;;;;;5034264;28;20047;-72
2022/09/16 04:06:55;;;;;;;0.10;0.10;;;;;;;;;;5053098;28;20095;-72
2022/09/16 04:09:21;;;;;;;0.10;0.10;;;;;;;;;;5051413;28;20033;-72
2022/09/16 04:11:47;;;;;;;0.10;0.10;;;;;;;;;;5053696;28;20041;-71
2022/09/16 04:14:13;;;;;;;0.10;0.10;;;;;;;;;;5053783;28;20362;-71
2022/09/16 04:16:40;;;;;;;0.10;0.10;;;;;;;;;;5058040;28;20041;-72
2022/09/16 04:19:06;;;;;;;0.10;0.10;;;;;;;;;;5052875;28;20121;-71
2022/09/16 04:21:32;;;;;;;0.10;0.10;;;;;;;;;;5050820;28;20052;-71
2022/09/16 04:23:58;;;;;;;0.10;0.10;;;;;;;;;;5044518;28;20049;-71
2022/09/16 04:26:25;;;;;;;0.10;0.10;;;;;;;;;;5037597;28;20132;-71
2022/09/16 04:28:54;;;;;;;0.10;0.10;;;;;;;;;;5035034;28;20484;-72
2022/09/16 04:31:20;;;;;;;0.10;0.10;;;;;;;;;;5048873;28;20080;-72
2022/09/16 04:33:46;;;;;;;0.10;0.10;;;;;;;;;;5059576;28;20048;-71
2022/09/16 04:36:13;;;;;;;0.10;0.10;;;;;;;;;;5054858;28;20064;-70
2022/09/16 04:38:41;;;;;;;0.10;0.10;;;;;;;;;;5057728;28;20405;-73
2022/09/16 04:41:14;;;;;;;0.10;0.10;;;;;;;;;;5054228;28;20052;-72
2022/09/16 04:43:41;;;;;;;0.10;0.10;;;;;;;;;;5056795;28;20089;-72
2022/09/16 04:46:07;;;;;;;0.10;0.10;;;;;;;;;;5055802;28;20071;-72
2022/09/16 04:48:33;;;;;;;0.10;0.10;;;;;;;;;;5055929;28;20048;-73
2022/09/16 04:51:07;;;;;;;0.00;0.00;;;;;;;;;;5039822;28;20049;-72
2022/09/16 04:53:34;;;;;;;0.10;0.10;;;;;;;;;;5052840;28;20052;-71
2022/09/16 04:56:07;;;;;;;0.10;0.10;;;;;;;;;;5054962;28;20044;-71
2022/09/16 04:58:33;;;;;;;0.10;0.10;;;;;;;;;;5063071;28;20136;-71
2022/09/16 05:01:12;;;;;;;0.10;0.10;;;;;;;;;;5053521;28;20045;-71
2022/09/16 05:03:42;;;;;;;0.00;0.00;;;;;;;;;;5043171;28;20119;-71
2022/09/16 05:06:09;;;;;;;0.10;0.10;;;;;;;;;;5053661;28;20068;-72
2022/09/16 05:08:36;;;;;;;0.10;0.10;;;;;;;;;;5057319;28;20045;-72
2022/09/16 05:11:03;;;;;;;0.10;0.10;;;;;;;;;;5053375;28;20124;-70
2022/09/16 05:13:29;;;;;;;0.10;0.10;;;;;;;;;;5053544;28;21469;-72
2022/09/16 05:15:55;;;;;;;0.10;0.10;;;;;;;;;;5061329;28;20051;-71
2022/09/16 05:18:21;;;;;;;0.10;0.10;;;;;;;;;;5054487;28;20044;-71
2022/09/16 05:20:48;;;;;;;0.10;0.10;;;;;;;;;;5022713;28;20087;-71
2022/09/16 05:23:14;;;;;;;0.10;0.10;;;;;;;;;;5040316;28;20053;-71
2022/09/16 05:25:40;;;;;;;0.10;0.10;;;;;;;;;;5041068;28;20075;-71
2022/09/16 05:28:06;;;;;;;0.10;0.10;;;;;;;;;;5048928;28;20052;-71
2022/09/16 05:30:32;;;;;;;0.10;0.10;;;;;;;;;;5045135;28;20120;-71
2022/09/16 05:32:58;;;;;;;0.10;0.10;;;;;;;;;;5040060;28;20077;-71
2022/09/16 05:35:24;;;;;;;0.10;0.10;;;;;;;;;;5019186;28;20057;-71
2022/09/16 05:37:50;;;;;;;0.10;0.10;;;;;;;;;;5041032;28;20110;-71
2022/09/16 05:40:16;;;;;;;0.10;0.10;;;;;;;;;;5025283;28;20041;-71
2022/09/16 05:42:42;;;;;;;0.10;0.10;;;;;;;;;;5041980;28;20048;-71
2022/09/16 05:45:08;;;;;;;0.10;0.10;;;;;;;;;;5050951;28;20614;-71
2022/09/16 05:47:34;;;;;;;0.10;0.10;;;;;;;;;;5047240;28;20487;-71
2022/09/16 05:50:00;;;;;;;0.00;0.00;;;;;;;;;;5034383;28;20479;-71
2022/09/16 05:52:26;;;;;;;0.10;0.10;;;;;;;;;;5042080;28;20061;-71
2022/09/16 05:54:52;;;;;;;0.10;0.10;;;;;;;;;;5040022;28;20041;-71
2022/09/16 05:57:20;;;;;;;0.10;0.10;;;;;;;;;;5029693;28;20041;-71
2022/09/16 05:59:46;;;;;;;0.85;0.85;;;;;;;;;;5015789;28;20430;-71
2022/09/16 06:02:12;;;;;;;0.10;0.10;;;;;;;;;;5034523;28;20049;-72
2022/09/16 06:04:38;;;;;;;0.10;0.10;;;;;;;;;;5051861;28;20098;-71
2022/09/16 06:07:06;;;;;;;0.10;0.10;;;;;;;;;;5028697;28;20045;-71
2022/09/16 06:09:32;;;;;;;0.10;0.10;;;;;;;;;;5045249;28;20041;-71
2022/09/16 06:11:58;;;;;;;0.10;0.10;;;;;;;;;;5023453;28;20141;-71
2022/09/16 06:14:24;;;;;;;0.10;0.10;;;;;;;;;;5038354;28;20084;-71
2022/09/16 06:16:50;;;;;;;0.10;0.10;;;;;;;;;;5040870;28;20488;-71
2022/09/16 06:19:17;;;;;;;0.20;0.20;;;;;;;;;;5044446;28;20033;-71
2022/09/16 06:21:43;;;;;;;0.10;0.10;;;;;;;;;;5044925;28;20436;-71
2022/09/16 06:24:10;;;;;;;0.10;0.10;;;;;;;;;;5039919;28;20423;-71
2022/09/16 06:26:37;;;;;;;0.10;0.10;;;;;;;;;;5035110;28;20790;-71
2022/09/16 06:29:05;;;;;;;0.10;0.10;;;;;;;;;;5047244;28;20459;-71
2022/09/16 06:31:31;;;;;;;0.10;0.10;;;;;;;;;;5035746;28;20790;-71
2022/09/16 06:33:57;;;;;;;0.10;0.10;;;;;;;;;;5024444;28;20957;-71
2022/09/16 06:36:37;;;;;;;0.10;0.10;;;;;;;;;;5047978;28;20429;-71
2022/09/16 06:39:04;;;;;;;0.10;0.10;;;;;;;;;;5047627;28;21848;-71
2022/09/16 06:41:32;;;;;;;0.10;0.10;;;;;;;;;;5036157;28;20427;-71
2022/09/16 06:43:58;;;;;;;0.10;0.10;;;;;;;;;;5035800;28;20436;-73
2022/09/16 06:46:26;;;;;;;0.10;0.10;;;;;;;;;;5049551;28;20787;-71
2022/09/16 06:48:53;;;;;;;0.60;0.50;;;;;;;;;;5047834;28;20424;-71
2022/09/16 06:51:23;;;;;;;0.10;0.10;;;;;;;;;;5017602;28;20442;-72
2022/09/16 06:53:50;;;;;;;0.10;0.10;;;;;;;;;;5041000;28;20429;-71
2022/09/16 06:56:19;;;;;;;0.20;0.20;;;;;;;;;;5032038;28;20501;-71
2022/09/16 06:58:48;;;;;;;0.10;0.10;;;;;;;;;;5047143;28;20922;-71
2022/09/16 07:01:16;;;;;;;0.10;0.10;;;;;;;;;;5037554;28;20423;-72
2022/09/16 07:03:44;;;;;;;0.10;0.10;;;;;;;;;;5049099;28;20428;-71
2022/09/16 07:06:11;;;;;;;0.10;0.10;;;;;;;;;;5041920;28;20802;-71
2022/09/16 07:08:38;;;;;;;0.40;0.30;;;;;;;;;;5034287;28;20419;-71
2022/09/16 07:11:05;;;;;;;0.50;0.50;;;;;;;;;;5032011;28;20442;-71
2022/09/16 07:13:32;;;;;;;0.10;0.10;;;;;;;;;;5043788;28;20500;-71
2022/09/16 07:15:59;;;;;;;0.10;0.10;;;;;;;;;;5036652;28;20423;-71
2022/09/16 07:18:26;;;;;;;0.40;0.40;;;;;;;;;;5044223;28;20458;-71
2022/09/16 07:20:52;;;;;;;0.10;0.10;;;;;;;;;;5038312;28;20437;-73
2022/09/16 07:23:18;;;;;;;0.10;0.10;;;;;;;;;;5039970;28;20914;-71
2022/09/16 07:25:44;;;;;;;0.20;0.20;;;;;;;;;;5039125;28;20820;-71
2022/09/16 07:28:10;;;;;;;0.10;0.10;;;;;;;;;;5031227;28;20429;-71
2022/09/16 07:30:36;;;;;;;0.10;0.10;;;;;;;;;;5032304;28;20439;-71
2022/09/16 07:33:02;;;;;;;0.20;0.20;;;;;;;;;;5028771;28;20429;-71
2022/09/16 07:35:28;;;;;;;0.10;0.10;;;;;;;;;;5021025;28;20928;-71
2022/09/16 07:37:54;;;;;;;0.30;0.20;;;;;;;;;;5040248;28;20464;-72
2022/09/16 07:40:21;;;;;;;0.10;0.10;;;;;;;;;;5031749;28;20423;-71
2022/09/16 07:42:47;;;;;;;0.10;0.10;;;;;;;;;;5044671;28;20539;-72
2022/09/16 07:45:13;;;;;;;0.10;0.10;;;;;;;;;;5044032;28;20893;-72
2022/09/16 07:47:39;;;;;;;1.20;0.50;;;;;;;;;;5048343;28;20421;-71
2022/09/16 07:50:05;;;;;;;0.10;0.10;;;;;;;;;;5033912;28;20841;-71
2022/09/16 07:52:31;;;;;;;0.40;0.40;;;;;;;;;;5021152;28;20436;-72
2022/09/16 07:54:57;;;;;;;0.10;0.10;;;;;;;;;;5033997;28;20426;-72
2022/09/16 07:57:24;;;;;;;0.10;0.10;;;;;;;;;;5041896;28;20911;-71
2022/09/16 07:59:50;;;;;;;0.35;0.35;;;;;;;;;;5048347;28;20548;-72
2022/09/16 08:02:16;;;;;;;0.10;0.10;;;;;;;;;;5048828;28;20063;-71
2022/09/16 08:04:43;;;;;;;0.00;0.00;;;;;;;;;;5048909;28;20049;-71
2022/09/16 08:07:09;;;;;;;0.10;0.10;;;;;;;;;;5041441;28;20045;-72
2022/09/16 08:09:36;;;;;;;0.10;0.10;;;;;;;;;;5049834;28;20037;-71
2022/09/16 08:12:03;;;;;;;;;;;;;;;;;;5042185;28;20045;-72
2022/09/16 08:14:29;;;;;;;;;;;;;;;;;;5039158;28;19921;-72
2022/09/16 08:16:55;;;;;;;;;;;;;;;;;;5033893;28;19921;-72
2022/09/16 08:19:22;;;;;;;;;;;;;;;;;;5047215;28;19920;-71
2022/09/16 08:21:48;;;;;;;;;;;;;;;;;;5044206;28;19924;-72
2022/09/16 08:24:15;;;;;;;;;;;;;;;;;;5036398;28;19987;-72
2022/09/16 08:26:41;;;;;;;;;;;;;;;;;;5036752;28;20364;-72
2022/09/16 08:29:07;;;;;;;;;;;;;;;;;;5045975;28;19932;-72
2022/09/16 08:31:33;;;;;;;;;;;;;;;;;;5040354;28;19927;-72
2022/09/16 08:33:59;;;;;;;;;;;;;;;;;;5047171;28;19967;-73
2022/09/16 08:36:25;;;;;;;;;;;;;;;;;;5054650;28;19928;-72
2022/09/16 08:38:51;;;;;;;;;;;;;;;;;;5054523;28;20011;-71
2022/09/16 08:41:17;;;;;;;;;;;;;;;;;;5043340;28;19981;-72
2022/09/16 08:43:44;;;;;;;;;;;;;;;;;;5055657;28;20317;-72
2022/09/16 08:46:10;;;;;;;;;;;;;;;;;;5036474;28;19925;-72
2022/09/16 08:48:36;;;;;;;;;;;;;;;;;;5048156;28;19943;-73
2022/09/16 08:51:02;;;;;;;;;;;;;;;;;;5035675;28;20386;-72
2022/09/16 08:53:28;;;;;;;;;;;;;;;;;;5043074;28;20383;-72
2022/09/16 08:55:54;;;;;;;;;;;;;;;;;;5047345;28;20322;-72
2022/09/16 08:58:20;;;;;;;;;;;;;;;;;;5048595;28;20030;-71
2022/09/16 09:00:46;;;;;;;;;;;;;;;;;;5047728;28;19929;-72
2022/09/16 09:03:12;;;;;;;;;;;;;;;;;;5041750;28;19921;-72
2022/09/16 09:05:39;;;;;;;;;;;;;;;;;;5047888;28;19927;-72
2022/09/16 09:08:06;;;;;;;;;;;;;;;;;;5042754;28;19935;-72
2022/09/16 09:10:32;;;;;;;;;;;;;;;;;;5036415;28;19921;-72
2022/09/16 09:12:58;;;;;;;;;;;;;;;;;;5036009;28;19967;-72
2022/09/16 09:15:23;;;;;;;;;;;;;;;;;;5034674;28;19921;-72
2022/09/16 09:17:49;;;;;;;;;;;;;;;;;;5051835;28;20390;-72
2022/09/16 09:20:15;;;;;;;;;;;;;;;;;;5057283;28;19956;-71
2022/09/16 09:22:41;;;;;;;;;;;;;;;;;;5044514;28;19951;-71
2022/09/16 09:25:07;;;;;;;;;;;;;;;;;;5044507;28;19928;-71
2022/09/16 09:27:33;;;;;;;;;;;;;;;;;;5036060;28;19975;-71
2022/09/16 09:29:59;;;;;;;;;;;;;;;;;;5035234;28;20007;-72
2022/09/16 09:32:25;;;;;;;;;;;;;;;;;;5035491;28;20367;-71
2022/09/16 09:34:51;;;;;;;;;;;;;;;;;;5048011;28;20403;-71
2022/09/16 09:37:17;;;;;;;;;;;;;;;;;;5053665;28;19921;-72
2022/09/16 09:40:00;;;;;;;0.10;0.10;;;;;;;;;;5044224;28;20459;-71
2022/09/16 09:42:47;;;;;;;0.20;0.20;;;;;;;;;;5039989;28;20057;-71
2022/09/16 09:45:13;;;;;;;0.10;0.10;;;;;;;;;;5048662;28;20059;-71
2022/09/16 09:47:46;;;;;;;0.20;0.20;;;;;;;;;;5057978;28;20594;-71
2022/09/16 09:50:21;;;;;;;0.85;0.85;;;;;;;;;;5044900;28;20051;-71
2022/09/16 09:52:52;;;;;;;0.10;0.10;;;;;;;;;;5053043;28;20120;-70
2022/09/16 09:55:19;;;;;;;0.00;0.00;;;;;;;;;;5042078;28;20110;-70
2022/09/16 09:57:57;;;;;;;0.10;0.10;;;;;;;;;;5033858;28;20050;-71
2022/09/16 10:00:23;;;;;;;0.10;0.10;;;;;;;;;;5033746;28;20041;-71
2022/09/16 10:02:50;;;;;;;0.10;0.10;;;;;;;;;;5040570;28;20167;-70
2022/09/16 10:05:22;;;;;;;0.10;0.10;;;;;;;;;;5033359;28;20038;-71
2022/09/16 10:07:49;;;;;;;0.10;0.10;;;;;;;;;;5042542;28;20230;-70
2022/09/16 10:10:17;;;;;;;0.00;0.00;;;;;;;;;;5049381;28;20072;-71
2022/09/16 10:12:43;;;;;;;0.10;0.10;;;;;;;;;;5034849;28;20534;-70
2022/09/16 10:15:24;;;;;;;0.00;0.00;;;;;;;;;;5039134;28;20124;-71
2022/09/16 10:17:51;;;;;;;0.10;0.10;;;;;;;;;;5033469;28;20081;-72
2022/09/16 10:20:28;;;;;;;0.10;0.10;;;;;;;;;;5045798;28;20395;-70
2022/09/16 10:23:05;;;;;;;0.10;0.10;;;;;;;;;;5017870;28;20053;-70
2022/09/16 10:25:32;;;;;;;11.55;2.83;;;;;;;;;;5043419;28;20051;-71
2022/09/16 10:28:00;;;;;;;0.10;0.10;;;;;;;;;;5050559;28;20048;-71
2022/09/16 10:30:31;;;;;;;0.10;0.10;;;;;;;;;;5022260;28;20053;-71
2022/09/16 10:33:03;;;;;;;0.98;0.90;;;;;;;;;;5037053;28;20048;-71
2022/09/16 10:35:34;;;;;;;0.10;0.10;;;;;;;;;;5033511;28;20049;-71
2022/09/16 10:38:20;;;;;;;0.10;0.10;;;;;;;;;;5054115;28;20059;-72
2022/09/16 10:41:00;;;;;;;0.10;0.10;;;;;;;;;;5033590;28;20038;-72
2022/09/16 10:43:27;;;;;;;0.10;0.10;;;;;;;;;;5041674;28;20048;-71
2022/09/16 10:45:54;;;;;;;0.10;0.10;;;;;;;;;;5050394;28;20044;-71
2022/09/16 10:48:22;;;;;;;0.10;0.10;;;;;;;;;;5040336;28;20091;-71
2022/09/16 10:51:01;;;;;;;0.10;0.10;;;;;;;;;;5050385;28;20044;-71
2022/09/16 10:53:32;;;;;;;0.20;0.20;;;;;;;;;;5032746;28;20502;-71
2022/09/16 10:56:00;;;;;;;0.10;0.10;;;;;;;;;;5015956;28;20124;-71
2022/09/16 10:58:26;;;;;;;0.10;0.10;;;;;;;;;;5039377;28;20041;-71
2022/09/16 11:01:11;;;;;;;0.10;0.10;;;;;;;;;;5036963;28;20743;-71
2022/09/16 11:03:46;;;;;;;0.10;0.10;;;;;;;;;;5032906;28;20081;-72
2022/09/16 11:06:30;;;;;;;0.10;0.10;;;;;;;;;;5032311;28;20053;-72
2022/09/16 11:08:56;;;;;;;0.10;0.10;;;;;;;;;;5030895;28;20048;-71
2022/09/16 11:11:34;;;;;;;0.10;0.10;;;;;;;;;;5042677;28;20049;-71
2022/09/16 11:14:03;;;;;;;0.10;0.10;;;;;;;;;;5033360;28;20504;-72
2022/09/16 11:16:41;;;;;;;0.10;0.10;;;;;;;;;;5032457;28;20052;-72
2022/09/16 11:19:13;;;;;;;0.10;0.10;;;;;;;;;;5043400;28;20045;-73
2022/09/16 11:21:39;;;;;;;0.10;0.10;;;;;;;;;;5032660;28;20049;-72
2022/09/16 11:24:14;;;;;;;0.10;0.10;;;;;;;;;;5033572;28;20049;-72
2022/09/16 11:26:55;;;;;;;1.05;1.05;;;;;;;;;;5017523;28;20435;-71
2022/09/16 11:29:37;;;;;;;3.42;2.83;;;;;;;;;;5042284;28;20048;-72
2022/09/16 11:32:13;;;;;;;0.10;0.10;;;;;;;;;;5047551;28;20511;-72
2022/09/16 11:34:48;;;;;;;0.10;0.10;;;;;;;;;;5036843;28;20095;-74
2022/09/16 11:37:17;;;;;;;0.10;0.10;;;;;;;;;;5058194;28;20835;-72
2022/09/16 11:39:43;;;;;;;0.00;0.00;;;;;;;;;;5050752;28;20488;-70
2022/09/16 11:42:27;;;;;;;0.00;0.00;;;;;;;;;;5048907;28;20037;-70
2022/09/16 11:45:29;;;;;;;0.10;0.10;;;;;;;;;;5023553;28;20084;-70
2022/09/16 11:48:14;;;;;;;0.22;0.22;;;;;;;;;;4983653;28;20073;-72
2022/09/16 11:50:40;;;;;;;0.10;0.10;;;;;;;;;;5042776;28;20053;-75
2022/09/16 11:53:15;;;;;;;0.00;0.00;;;;;;;;;;5062222;28;20040;-75
2022/09/16 11:55:47;;;;;;;0.10;0.10;;;;;;;;;;5030678;28;20049;-73
2022/09/16 11:58:19;;;;;;;0.13;0.13;;;;;;;;;;5029571;28;20155;-74
2022/09/16 12:00:46;;;;;;;0.20;0.20;;;;;;;;;;5040828;28;20037;-72
2022/09/16 12:03:15;;;;;;;0.47;0.47;;;;;;;;;;5047810;28;20560;-73
2022/09/16 12:05:52;;;;;;;0.10;0.10;;;;;;;;;;5033690;28;20059;-74
2022/09/16 12:08:36;;;;;;;0.10;0.10;;;;;;;;;;5015049;28;20381;-73
2022/09/16 12:11:02;;;;;;;;;;;;;;;;;;5046827;28;20045;-73
2022/09/16 12:13:33;;;;;;;0.10;0.10;;;;;;;;;;5040059;28;20010;-74
2022/09/16 12:16:09;;;;;;;0.10;0.10;;;;;;;;;;5031623;28;20080;-73
2022/09/16 12:18:37;;;;;;;0.75;0.75;;;;;;;;;;5043849;28;20050;-75
2022/09/16 12:21:09;;;;;;;0.32;0.32;;;;;;;;;;5058921;28;20067;-74
2022/09/16 12:23:45;;;;;;;0.10;0.10;;;;;;;;;;5041189;28;20515;-74
2022/09/16 12:26:13;;;;;;;0.10;0.10;;;;;;;;;;5047040;28;20505;-73
2022/09/16 12:28:49;;;;;;;0.10;0.10;;;;;;;;;;5046373;28;20041;-73
2022/09/16 12:31:27;;;;;;;0.10;0.10;;;;;;;;;;5054947;28;20124;-73
2022/09/16 12:33:58;;;;;;;0.10;0.10;;;;;;;;;;5038694;28;20400;-73
2022/09/16 12:36:29;;;;;;;0.10;0.10;;;;;;;;;;5023664;28;20092;-75
2022/09/16 12:38:58;;;;;;;0.10;0.10;;;;;;;;;;5042818;28;20052;-71
2022/09/16 12:41:30;;;;;;;0.10;0.10;;;;;;;;;;5048957;28;20083;-72
2022/09/16 12:44:15;;;;;;;0.00;0.00;;;;;;;;;;5014234;28;20053;-72
2022/09/16 12:47:06;;;;;;;0.05;0.05;;;;;;;;;;5029914;28;20040;-71
2022/09/16 12:49:36;;;;;;;0.10;0.10;;;;;;;;;;5038242;28;20720;-73
2022/09/16 12:52:05;;;;;;;0.20;0.20;;;;;;;;;;5042960;28;20076;-73
2022/09/16 12:54:42;;;;;;;1.23;1.13;;;;;;;;;;5037946;28;20138;-73
2022/09/16 12:57:23;;;;;;;0.10;0.10;;;;;;;;;;5045275;28;20376;-73
2022/09/16 13:00:05;;;;;;;0.22;0.22;;;;;;;;;;5040835;28;20127;-72
2022/09/16 13:02:36;;;;;;;0.52;0.52;;;;;;;;;;5043253;28;20526;-73
2022/09/16 13:05:11;;;;;;;0.00;0.00;;;;;;;;;;5050649;28;20048;-73
2022/09/16 13:07:37;;;;;;;0.00;0.00;;;;;;;;;;5048370;28;20580;-72
2022/09/16 13:10:18;;;;;;;0.00;0.00;;;;;;;;;;5025997;28;20114;-72
2022/09/16 13:12:54;;;;;;;0.10;0.10;;;;;;;;;;5043538;28;20063;-72
2022/09/16 13:15:25;;;;;;;0.10;0.10;;;;;;;;;;5044283;28;20091;-73
2022/09/16 13:17:52;;;;;;;0.00;0.00;;;;;;;;;;5051460;28;20052;-72
2022/09/16 13:20:24;;;;;;;0.10;0.10;;;;;;;;;;5050206;28;20033;-74
2022/09/16 13:22:58;;;;;;;0.10;0.10;;;;;;;;;;5037653;28;20045;-73
2022/09/16 13:25:27;;;;;;;0.10;0.10;;;;;;;;;;5044532;28;20049;-72
2022/09/16 13:28:04;;;;;;;0.10;0.10;;;;;;;;;;5034231;28;20391;-74
2022/09/16 13:30:32;;;;;;;0.10;0.10;;;;;;;;;;5040866;28;20045;-77
2022/09/16 13:32:59;;;;;;;0.10;0.10;;;;;;;;;;5022506;28;20068;-74
2022/09/16 13:35:37;;;;;;;0.10;0.10;;;;;;;;;;5047028;28;20928;-76
2022/09/16 13:38:20;;;;;;;0.00;0.00;;;;;;;;;;5058222;28;20303;-74
2022/09/16 13:41:00;;;;;;;0.10;0.10;;;;;;;;;;5044961;28;20455;-75
2022/09/16 13:43:34;;;;;;;0.00;0.00;;;;;;;;;;5060076;28;20045;-75
2022/09/16 13:46:05;;;;;;;0.10;0.10;;;;;;;;;;5046321;28;20080;-75
2022/09/16 13:48:35;;;;;;;0.10;0.10;;;;;;;;;;5022129;28;20473;-77
2022/09/16 13:51:02;;;;;;;0.10;0.10;;;;;;;;;;5058086;28;20051;-76
2022/09/16 13:53:36;;;;;;;0.10;0.10;;;;;;;;;;5047504;28;20052;-74
2022/09/16 13:56:08;;;;;;;0.00;0.00;;;;;;;;;;5043808;28;20139;-77
2022/09/16 13:58:36;;;;;;;0.10;0.10;;;;;;;;;;5050479;28;20049;-75
2022/09/16 14:01:15;;;;;;;0.10;0.10;;;;;;;;;;5029337;28;20377;-74
2022/09/16 14:03:48;;;;;;;0.00;0.00;;;;;;;;;;5043637;28;20049;-72
2022/09/16 14:06:33;;;;;;;0.10;0.10;;;;;;;;;;5044315;28;20049;-71
2022/09/16 14:09:02;;;;;;;0.10;0.10;;;;;;;;;;5032827;28;20045;-73
2022/09/16 14:11:52;;;;;;;0.10;0.10;;;;;;;;;;5050086;28;20056;-76
2022/09/16 14:14:23;;;;;;;0.00;0.00;;;;;;;;;;5048342;28;20128;-76
2022/09/16 14:16:49;;;;;;;0.10;0.10;;;;;;;;;;5027419;28;20044;-75
2022/09/16 14:19:21;;;;;;;0.00;0.00;;;;;;;;;;5057950;28;20049;-75
2022/09/16 14:22:00;;;;;;;0.00;0.00;;;;;;;;;;5056435;28;20329;-72
2022/09/16 14:24:33;;;;;;;0.10;0.10;;;;;;;;;;5039696;28;20519;-73
2022/09/16 14:26:59;;;;;;;0.00;0.00;;;;;;;;;;5025840;28;20037;-74
2022/09/16 14:29:26;;;;;;;0.10;0.10;;;;;;;;;;5049490;28;20048;-73
2022/09/16 14:31:54;;;;;;;0.57;0.57;;;;;;;;;;5051475;28;20506;-74
2022/09/16 14:34:22;;;;;;;0.10;0.10;;;;;;;;;;5033507;28;20042;-72
2022/09/16 14:36:49;;;;;;;0.10;0.10;;;;;;;;;;5052053;28;20554;-73
2022/09/16 14:39:16;;;;;;;0.10;0.10;;;;;;;;;;5040044;28;20045;-73
2022/09/16 14:41:48;;;;;;;0.00;0.00;;;;;;;;;;5037361;28;20059;-72
2022/09/16 14:44:21;;;;;;;1.88;0.30;;;;;;;;;;5041428;28;20444;-73
2022/09/16 14:47:06;;;;;;;0.10;0.10;;;;;;;;;;5041059;28;20045;-72
2022/09/16 14:49:35;;;;;;;0.10;0.10;;;;;;;;;;5039908;28;20125;-71
2022/09/16 14:52:01;;;;;;;0.10;0.10;;;;;;;;;;5047027;28;20442;-70
2022/09/16 14:54:28;;;;;;;0.00;0.00;;;;;;;;;;5017669;28;20049;-72
2022/09/16 14:57:05;;;;;;;0.10;0.10;;;;;;;;;;5043163;28;20475;-71
2022/09/16 14:59:36;;;;;;;0.10;0.10;;;;;;;;;;5044261;28;20116;-72
2022/09/16 15:02:15;;;;;;;0.10;0.10;;;;;;;;;;5036033;28;20055;-70
2022/09/16 15:04:43;;;;;;;0.10;0.10;;;;;;;;;;5031336;28;20120;-72
2022/09/16 15:07:14;;;;;;;0.10;0.10;;;;;;;;;;5047747;28;20053;-72
2022/09/16 15:09:53;;;;;;;0.10;0.10;;;;;;;;;;5042973;28;20041;-74
2022/09/16 15:12:23;;;;;;;0.00;0.00;;;;;;;;;;5042939;28;20045;-72